Isle of Wight, United Kingdom
Current Conditions -  °F | °C
As of 2:20 PM on Saturday 20 Dec 2014 (Local Time) from EGHI Reporting Station
Scattered Clouds Scattered Clouds  
Wind Chill: 43°   Ceiling: Unl
Heat Index: 48°   Visibility: 6mi
Dew Point: 37°   Wind: 14mph
Humidity: 66%   Direction: 290°WNW
Pressure: 30.36"   Gusts: NA
Location:  50.68°N, 1.4°W
Report Text: EGHI 201420Z 29012KT 240V320 9999 FEW028 SCT048 09/03 Q1028
Loading
Personal Weather Stations






























Interactive Weather Map New forecast layout! Learn more

10-Day Weather Forecast

Advertisements
Track Severe Weather on mobile